Time;durP1;ratioP1;P1;durP2;ratioP2;P2;SDS_P1;SDS_P2;PMS_P1;PMS_P2;Temp;Humidity;BMP_temperature;BMP_pressure;BME280_temperature;BME280_humidity;BME280_pressure;Samples;Min_cycle;Max_cycle;Signal;HPM_P1;HPM_P2
2021/12/31 00:03:16;;;;;;;0.65;0.20;;;;;;;11.09;79.05;98054.19;12834606;23;20028;-80
2021/12/31 00:08:36;;;;;;;1.52;0.40;;;;;;;11.16;79.01;98064.47;12804713;23;20016;-81
2021/12/31 00:13:58;;;;;;;1.05;0.40;;;;;;;11.27;78.66;98046.34;12806099;23;20020;-80
2021/12/31 00:19:22;;;;;;;0.73;0.28;;;;;;;11.31;78.40;98051.50;12830293;23;20017;-81
2021/12/31 00:24:47;;;;;;;0.77;0.30;;;;;;;11.34;78.20;98050.28;12829370;23;20371;-79
2021/12/31 00:30:10;;;;;;;1.20;0.30;;;;;;;11.21;78.37;98034.03;12846257;23;20028;-80
2021/12/31 00:44:15;;;;;;;0.30;0.20;;;;;;;10.89;78.88;98033.19;12867347;23;20343;-79
2021/12/31 00:49:40;;;;;;;0.90;0.30;;;;;;;10.77;78.88;98041.44;12846082;23;20355;-80
2021/12/31 00:55:01;;;;;;;0.82;0.20;;;;;;;10.71;78.89;98037.47;12834124;23;20040;-82
2021/12/31 01:00:50;;;;;;;0.50;0.20;;;;;;;10.64;79.03;98053.09;12876136;23;20021;-82
2021/12/31 01:06:44;;;;;;;1.08;0.30;;;;;;;10.57;79.07;98051.16;12888621;23;20024;-82
2021/12/31 01:12:10;;;;;;;1.15;0.20;;;;;;;10.55;79.25;98065.00;12869812;23;20031;-81
2021/12/31 01:18:17;;;;;;;0.50;0.30;;;;;;;10.52;79.32;98041.06;12833302;23;20463;-81
2021/12/31 01:23:38;;;;;;;1.10;0.20;;;;;;;10.48;79.51;98054.69;12832291;23;20029;-82
2021/12/31 01:29:09;;;;;;;2.15;0.30;;;;;;;10.47;79.38;98045.59;12887955;23;20020;-82
2021/12/31 01:34:39;;;;;;;2.17;0.20;;;;;;;10.47;79.36;98053.97;12860294;23;20016;-80
2021/12/31 01:40:03;;;;;;;1.00;0.30;;;;;;;10.51;79.15;98057.03;12884818;23;20017;-82
2021/12/31 01:45:56;;;;;;;0.88;0.35;;;;;;;10.52;79.17;98055.75;12858492;23;20468;-81
2021/12/31 01:51:19;;;;;;;1.33;0.40;;;;;;;10.55;78.92;98054.56;12854108;23;20016;-81
2021/12/31 01:56:43;;;;;;;1.80;0.20;;;;;;;10.64;78.83;98061.47;12845741;23;20505;-80
2021/12/31 02:02:32;;;;;;;1.65;0.30;;;;;;;10.68;78.72;98049.84;12837046;23;20028;-81
2021/12/31 02:07:53;;;;;;;2.25;0.30;;;;;;;10.64;78.77;98058.66;12809466;23;20439;-81
2021/12/31 02:13:42;;;;;;;0.95;0.30;;;;;;;10.57;78.92;98060.28;12839055;23;20029;-80
2021/12/31 02:19:31;;;;;;;1.65;0.40;;;;;;;10.53;78.90;98051.63;12819071;23;20379;-80
2021/12/31 02:25:24;;;;;;;0.65;0.20;;;;;;;10.50;78.68;98047.19;12836990;23;20024;-80
2021/12/31 02:30:54;;;;;;;0.93;0.20;;;;;;;10.46;79.21;98062.94;12846302;23;20072;-80
2021/12/31 02:36:16;;;;;;;1.02;0.30;;;;;;;10.43;79.05;98059.25;12826008;23;20082;-80
2021/12/31 02:41:38;;;;;;;1.13;0.30;;;;;;;10.46;79.17;98066.44;12825678;23;20022;-80
2021/12/31 02:47:03;;;;;;;1.23;0.30;;;;;;;10.48;78.85;98069.38;12825077;23;20017;-80
2021/12/31 02:52:58;;;;;;;1.77;0.30;;;;;;;10.50;79.24;98071.59;12835715;23;20024;-81
2021/12/31 02:58:19;;;;;;;1.13;0.30;;;;;;;10.63;79.11;98076.00;12822814;23;20378;-80
2021/12/31 03:04:08;;;;;;;0.95;0.30;;;;;;;10.79;78.98;98088.31;12833758;23;20459;-79
2021/12/31 03:09:58;;;;;;;0.43;0.10;;;;;;;10.87;79.07;98083.31;12819036;23;20025;-80
2021/12/31 03:15:48;;;;;;;1.05;0.20;;;;;;;10.95;78.83;98094.34;12836149;23;20020;-80
2021/12/31 03:21:40;;;;;;;0.50;0.13;;;;;;;11.00;79.06;98096.09;12832087;23;20088;-80
2021/12/31 03:28:07;;;;;;;0.17;0.10;;;;;;;11.13;78.36;98096.38;12833389;23;20020;-80
2021/12/31 03:34:00;;;;;;;0.93;0.20;;;;;;;11.20;78.08;98102.41;12862208;23;20020;-80
2021/12/31 03:48:00;;;;;;;1.75;0.28;;;;;;;11.23;77.74;98106.81;12748955;23;20018;-80
2021/12/31 03:53:33;;;;;;;1.33;0.28;;;;;;;11.24;77.89;98109.00;12734670;23;20336;-81
2021/12/31 03:58:55;;;;;;;;;;;;;;;11.26;77.78;98108.41;12725899;23;20018;-80
2021/12/31 04:04:44;;;;;;;1.65;0.22;;;;;;;11.29;77.73;98093.25;12759999;23;19917;-81
2021/12/31 04:10:36;;;;;;;0.68;0.17;;;;;;;11.27;77.59;98091.03;12756529;23;20025;-80
2021/12/31 04:16:25;;;;;;;0.47;0.20;;;;;;;11.26;77.45;98086.78;12764885;23;20025;-82
2021/12/31 04:22:16;;;;;;;0.40;0.13;;;;;;;11.28;77.72;98075.00;12764961;23;20025;-81
2021/12/31 04:28:05;;;;;;;0.45;0.10;;;;;;;11.30;77.55;98086.34;12759038;23;20021;-81
2021/12/31 04:33:30;;;;;;;0.40;0.20;;;;;;;11.31;77.63;98087.81;12769434;23;20026;-82
2021/12/31 04:38:52;;;;;;;2.33;0.22;;;;;;;11.32;77.43;98103.25;12763812;23;20002;-82
2021/12/31 04:44:41;;;;;;;0.40;0.20;;;;;;;11.34;77.58;98095.75;12798461;23;20024;-81
2021/12/31 04:50:31;;;;;;;1.48;0.30;;;;;;;11.31;77.42;98080.16;12874438;23;20020;-78
2021/12/31 04:55:52;;;;;;;0.85;0.30;;;;;;;11.27;77.31;98079.88;12879785;23;20017;-82
2021/12/31 05:01:42;;;;;;;1.77;0.25;;;;;;;11.26;77.42;98074.88;12891987;23;20058;-82
2021/12/31 05:07:31;;;;;;;2.40;0.40;;;;;;;11.17;77.36;98084.75;12890828;23;20028;-82
2021/12/31 05:12:55;;;;;;;1.73;0.40;;;;;;;10.95;77.58;98097.16;12899875;23;20017;-82
2021/12/31 05:18:17;;;;;;;1.45;0.30;;;;;;;10.76;77.87;98098.63;12880914;23;20016;-81
2021/12/31 05:23:39;;;;;;;0.90;0.22;;;;;;;10.66;78.32;98097.16;12880366;23;20008;-80
2021/12/31 05:29:02;;;;;;;1.17;0.50;;;;;;;10.57;78.30;98096.56;12879823;23;20023;-81
2021/12/31 05:34:23;;;;;;;1.70;0.40;;;;;;;10.55;78.70;98101.28;12772200;23;20024;-80
2021/12/31 05:39:45;;;;;;;1.55;0.20;;;;;;;10.54;78.97;98102.59;12743549;23;20022;-80
2021/12/31 05:45:07;;;;;;;1.42;0.30;;;;;;;10.45;79.30;98108.91;12742036;23;20017;-79
2021/12/31 05:50:28;;;;;;;1.35;0.20;;;;;;;10.37;79.42;98119.47;12721347;23;20321;-81
2021/12/31 05:55:50;;;;;;;1.73;0.25;;;;;;;10.28;79.87;98109.75;12716448;23;20018;-80
2021/12/31 06:01:12;;;;;;;1.92;0.40;;;;;;;10.31;79.57;98117.69;12719738;23;20013;-81
2021/12/31 06:06:35;;;;;;;2.03;0.50;;;;;;;10.36;79.91;98127.09;12721731;23;20050;-80
2021/12/31 06:12:00;;;;;;;0.90;0.30;;;;;;;10.50;79.79;98141.34;12741470;23;20018;-80
2021/12/31 06:17:26;;;;;;;0.93;0.43;;;;;;;10.72;79.89;98131.13;12728158;23;20017;-80
2021/12/31 06:23:17;;;;;;;1.55;0.38;;;;;;;10.88;79.40;98146.97;12730340;23;20061;-81
2021/12/31 06:28:42;;;;;;;1.35;0.30;;;;;;;11.01;79.13;98162.56;12741671;23;20021;-81
2021/12/31 06:34:03;;;;;;;;;;;;;;;11.11;79.03;98157.72;12770959;23;20040;-79
2021/12/31 06:39:26;;;;;;;1.45;0.30;;;;;;;11.13;78.79;98143.16;12768675;23;19944;-85
2021/12/31 06:45:17;;;;;;;1.40;0.50;;;;;;;11.17;78.83;98160.19;12827849;23;20009;-85
2021/12/31 06:50:39;;;;;;;2.10;0.70;;;;;;;11.25;78.89;98162.84;12816669;23;20005;-85
2021/12/31 06:56:01;;;;;;;1.33;0.57;;;;;;;11.24;78.52;98173.28;12795399;23;20048;-84
2021/12/31 07:01:24;;;;;;;2.13;0.93;;;;;;;11.27;78.75;98180.47;12856976;23;20004;-84
2021/12/31 07:06:46;;;;;;;0.80;0.50;;;;;;;11.30;78.49;98184.16;12860281;23;20000;-85
2021/12/31 07:12:09;;;;;;;1.88;0.50;;;;;;;11.36;78.28;98188.13;12853238;23;20000;-84
2021/12/31 07:17:31;;;;;;;2.58;0.70;;;;;;;11.37;78.28;98184.00;12917298;23;20027;-83
2021/12/31 07:22:54;;;;;;;2.38;0.63;;;;;;;11.44;78.26;98191.50;12875985;23;20031;-83
2021/12/31 07:28:16;;;;;;;;;;;;;;;11.55;77.89;98201.31;12898402;23;20001;-77
2021/12/31 07:33:37;;;;;;;2.70;0.60;;;;;;;11.57;78.25;98204.25;12825558;23;19904;-84
2021/12/31 07:39:05;;;;;;;1.55;0.50;;;;;;;11.63;77.71;98210.28;12850221;23;20465;-81
2021/12/31 07:44:26;;;;;;;2.35;0.50;;;;;;;11.71;77.73;98215.72;12803078;23;20092;-79
2021/12/31 07:49:47;;;;;;;1.55;0.50;;;;;;;11.79;77.65;98221.16;12833959;23;20023;-79
2021/12/31 07:55:08;;;;;;;1.88;0.60;;;;;;;11.90;77.43;98217.78;12860459;23;20020;-80
2021/12/31 08:00:32;;;;;;;2.50;0.47;;;;;;;11.86;76.86;98221.00;12835048;23;20016;-79
2021/12/31 08:05:52;;;;;;;1.77;0.60;;;;;;;11.86;76.81;98225.88;12817850;23;20020;-79
2021/12/31 08:11:13;;;;;;;3.80;1.02;;;;;;;11.81;76.62;98233.25;12845532;23;20096;-80
2021/12/31 08:16:34;;;;;;;3.10;0.60;;;;;;;11.83;76.48;98232.66;12846821;23;20020;-79
2021/12/31 08:21:54;;;;;;;2.00;0.80;;;;;;;11.83;76.43;98215.88;12785315;23;20021;-79
2021/12/31 08:27:15;;;;;;;2.35;0.30;;;;;;;11.80;76.34;98228.25;12847294;23;20012;-79
2021/12/31 08:32:35;;;;;;;1.35;0.40;;;;;;;11.80;76.42;98233.84;12803438;23;20028;-79
2021/12/31 08:37:57;;;;;;;1.27;0.30;;;;;;;11.82;76.54;98236.78;12829341;23;20070;-78
2021/12/31 08:43:17;;;;;;;1.48;0.32;;;;;;;11.87;76.13;98232.91;12822065;23;20017;-76
2021/12/31 08:48:38;;;;;;;1.30;0.50;;;;;;;11.89;75.90;98227.50;12842358;23;20019;-76
2021/12/31 08:53:58;;;;;;;2.80;0.70;;;;;;;11.93;75.97;98222.16;12822615;23;20023;-76
2021/12/31 08:59:19;;;;;;;3.60;1.10;;;;;;;11.98;75.46;98232.31;12822756;23;20013;-77
2021/12/31 09:04:40;;;;;;;2.47;0.70;;;;;;;12.01;75.63;98236.72;12802998;23;20020;-76
2021/12/31 09:10:00;;;;;;;3.22;0.90;;;;;;;12.03;75.08;98234.06;12822047;23;20159;-76
2021/12/31 09:15:21;;;;;;;3.58;1.23;;;;;;;12.08;75.03;98221.84;12799411;23;20024;-76
2021/12/31 09:20:42;;;;;;;2.00;0.82;;;;;;;12.14;74.51;98222.25;12821308;23;20028;-76
2021/12/31 09:26:03;;;;;;;2.72;0.60;;;;;;;12.17;74.77;98215.47;12800462;23;20024;-76
2021/12/31 09:31:23;;;;;;;2.38;0.70;;;;;;;12.24;74.10;98222.94;12800652;23;20074;-77
2021/12/31 09:36:44;;;;;;;1.52;0.50;;;;;;;12.30;74.21;98222.63;12823264;23;20017;-77
2021/12/31 09:42:05;;;;;;;1.77;0.60;;;;;;;12.36;73.60;98216.72;12841914;23;20013;-77
2021/12/31 09:47:26;;;;;;;2.25;0.50;;;;;;;12.47;73.58;98213.25;12843162;23;20024;-78
2021/12/31 09:52:47;;;;;;;2.15;0.70;;;;;;;12.66;73.20;98215.22;12781366;23;20079;-77
2021/12/31 09:58:09;;;;;;;1.55;0.52;;;;;;;12.77;72.40;98204.09;12803221;23;20024;-78
2021/12/31 10:03:32;;;;;;;1.60;0.40;;;;;;;12.82;71.90;98216.28;12821518;23;20087;-78
2021/12/31 10:08:57;;;;;;;1.80;0.35;;;;;;;12.84;71.94;98214.38;12822190;23;20024;-77
2021/12/31 10:14:18;;;;;;;2.50;0.50;;;;;;;12.83;71.57;98212.88;12844629;23;20016;-77
2021/12/31 10:19:49;;;;;;;3.15;0.55;;;;;;;12.87;71.65;98213.16;12868441;23;20020;-83
2021/12/31 10:25:20;;;;;;;1.23;0.50;;;;;;;12.90;71.23;98214.75;12851773;23;20017;-76
2021/12/31 10:30:42;;;;;;;3.35;0.75;;;;;;;12.95;71.15;98215.03;12844387;23;20436;-77
2021/12/31 10:36:02;;;;;;;1.77;0.80;;;;;;;12.98;71.14;98208.22;12822128;23;20020;-76
2021/12/31 10:41:23;;;;;;;1.50;0.70;;;;;;;13.03;70.63;98204.34;12843593;23;20017;-77
2021/12/31 10:46:44;;;;;;;3.13;1.10;;;;;;;13.06;70.69;98212.28;12843917;23;20017;-76
2021/12/31 10:52:10;;;;;;;1.85;0.80;;;;;;;13.11;70.71;98205.59;12812057;23;20040;-80
2021/12/31 10:57:35;;;;;;;;;;;;;;;13.17;70.43;98208.81;12841641;23;20039;-80
2021/12/31 11:02:56;;;;;;;2.10;1.10;;;;;;;13.21;70.07;98191.53;12854030;23;19943;-83
2021/12/31 11:08:17;;;;;;;2.92;0.80;;;;;;;13.35;69.76;98194.53;12877211;23;20021;-81
2021/12/31 11:13:38;;;;;;;1.55;0.63;;;;;;;13.42;69.69;98191.50;12885441;23;20068;-81
2021/12/31 11:18:58;;;;;;;1.70;0.90;;;;;;;13.42;69.10;98173.94;12863173;23;20016;-78
2021/12/31 11:24:34;;;;;;;4.65;0.90;;;;;;;13.54;68.92;98171.16;12842913;23;20021;-79
2021/12/31 11:29:55;;;;;;;2.22;0.60;;;;;;;14.01;68.07;98138.31;12831256;23;20024;-79
2021/12/31 11:35:38;;;;;;;2.90;0.80;;;;;;;13.98;67.20;98111.44;12872769;23;20096;-79
2021/12/31 11:41:21;;;;;;;2.13;0.80;;;;;;;14.67;67.24;98128.81;12888376;23;20039;-80
2021/12/31 11:46:47;;;;;;;2.57;1.00;;;;;;;15.13;64.31;98114.59;12855226;23;20004;-80
2021/12/31 11:52:08;;;;;;;1.55;0.70;;;;;;;15.35;64.13;98101.03;12838931;23;20034;-81
2021/12/31 11:57:31;;;;;;;3.28;0.90;;;;;;;15.47;64.26;98089.72;12838041;23;20024;-81
2021/12/31 12:02:52;;;;;;;1.38;0.60;;;;;;;15.62;63.80;98100.38;12860968;23;20027;-80
2021/12/31 12:58:25;;;;;;;2.00;0.57;;;;;;;15.63;56.19;98061.72;12757248;23;20052;-74
2021/12/31 13:03:53;;;;;;;1.67;0.60;;;;;;;15.56;54.90;98057.13;12849210;23;20029;-81
2021/12/31 13:09:15;;;;;;;1.50;0.40;;;;;;;15.56;55.28;98046.59;12873916;23;20087;-83
2021/12/31 13:14:37;;;;;;;0.80;0.30;;;;;;;15.52;54.98;98046.38;12862314;23;20066;-81
2021/12/31 13:20:09;;;;;;;1.38;0.38;;;;;;;15.15;54.32;98047.25;12857561;23;20031;-83
2021/12/31 13:32:19;;;;;;;0.88;0.35;;;;;;;15.01;54.77;98052.06;12674056;23;20090;31
2021/12/31 13:37:42;;;;;;;1.17;0.30;;;;;;;15.00;54.69;98059.06;12533500;23;20055;-87
2021/12/31 13:49:20;;;;;;;2.75;0.52;;;;;;;14.75;54.90;98048.53;12813113;23;20455;-81
2021/12/31 14:01:22;;;;;;;1.15;0.60;;;;;;;14.51;55.39;98041.56;12899952;23;19911;-85
2021/12/31 14:06:43;;;;;;;1.63;0.60;;;;;;;14.45;55.52;98027.88;12838760;23;20027;-84
2021/12/31 14:12:06;;;;;;;2.55;0.60;;;;;;;14.29;55.67;98032.56;12814764;23;20015;-86
2021/12/31 14:17:28;;;;;;;2.55;0.55;;;;;;;13.83;56.40;98017.28;12812073;23;20029;-82
2021/12/31 14:22:50;;;;;;;2.75;0.57;;;;;;;13.48;57.11;98024.97;12807160;23;20659;-78
2021/12/31 14:28:13;;;;;;;0.60;0.40;;;;;;;13.33;57.62;98020.59;12808887;23;20124;-79
2021/12/31 14:33:37;;;;;;;3.15;0.73;;;;;;;13.22;58.23;98010.06;12819059;23;20025;-80
2021/12/31 14:39:39;;;;;;;1.40;0.60;;;;;;;13.07;58.88;98002.84;12729808;23;20064;-81
2021/12/31 14:45:00;;;;;;;2.85;0.85;;;;;;;12.92;59.05;98003.28;12829355;23;20020;-85
2021/12/31 14:50:21;;;;;;;2.35;0.80;;;;;;;12.73;59.50;98004.94;12868329;23;20068;-85
2021/12/31 14:55:43;;;;;;;2.85;0.80;;;;;;;12.50;60.29;98014.00;12846428;23;20017;-85
2021/12/31 15:01:05;;;;;;;1.42;0.88;;;;;;;12.32;61.28;98001.63;12845962;23;20005;-84
2021/12/31 15:06:27;;;;;;;3.15;0.93;;;;;;;12.18;60.76;98004.25;12873193;23;20015;-82
2021/12/31 15:11:52;;;;;;;1.67;1.00;;;;;;;12.11;61.38;98012.84;12873670;23;20016;-83
2021/12/31 15:17:15;;;;;;;3.40;0.80;;;;;;;12.08;61.76;97989.59;12868449;23;20013;-85
2021/12/31 15:22:39;;;;;;;2.53;0.85;;;;;;;12.03;61.95;97987.84;12889035;23;20013;-88
2021/12/31 15:28:03;;;;;;;2.22;0.88;;;;;;;12.00;62.15;97978.59;12847162;23;20044;-86
2021/12/31 15:33:24;;;;;;;2.25;0.77;;;;;;;11.96;62.41;97977.59;12848307;23;20013;-86
2021/12/31 15:38:49;;;;;;;3.53;1.10;;;;;;;11.93;62.62;97967.59;12868840;23;20069;-88
2021/12/31 15:44:11;;;;;;;3.42;1.00;;;;;;;11.94;62.94;97972.59;12870773;23;20021;-88
2021/12/31 15:49:32;;;;;;;3.40;1.67;;;;;;;11.93;62.99;97989.97;12873496;23;20019;-87
2021/12/31 15:54:54;;;;;;;3.47;1.50;;;;;;;11.93;63.71;97964.81;12844155;23;20008;-79
2021/12/31 16:00:15;;;;;;;4.60;1.48;;;;;;;11.87;63.56;97961.59;12797907;23;20080;-81
2021/12/31 16:05:37;;;;;;;3.83;1.73;;;;;;;11.79;63.56;97942.22;12843634;23;20017;-80
2021/12/31 16:10:57;;;;;;;3.53;1.80;;;;;;;11.74;63.71;97935.59;12870097;23;20012;-82
2021/12/31 16:16:19;;;;;;;3.25;1.75;;;;;;;11.69;64.28;97973.03;12892103;23;20068;-82
2021/12/31 16:21:40;;;;;;;4.50;2.20;;;;;;;11.65;64.56;97944.06;12869010;23;20072;-81
2021/12/31 16:27:01;;;;;;;5.28;2.13;;;;;;;11.63;64.67;97953.06;12844647;23;20087;-80
2021/12/31 16:32:25;;;;;;;6.10;1.88;;;;;;;11.62;65.39;97971.16;12835077;23;20344;-80
2021/12/31 16:37:45;;;;;;;4.95;2.60;;;;;;;11.65;65.32;97966.44;12829420;23;20012;-80
2021/12/31 16:43:07;;;;;;;4.55;2.10;;;;;;;11.62;65.88;97968.38;12850307;23;20066;-79
2021/12/31 16:48:28;;;;;;;4.68;2.67;;;;;;;11.62;66.04;97987.94;12854453;23;20016;-80
2021/12/31 16:53:49;;;;;;;3.58;2.42;;;;;;;11.64;65.59;97995.72;12831450;23;20446;-79
2021/12/31 16:59:10;;;;;;;4.75;2.38;;;;;;;11.65;65.91;97994.38;12829117;23;20027;-80
2021/12/31 17:04:31;;;;;;;4.05;2.50;;;;;;;11.69;66.04;97989.81;12864674;23;20016;-79
2021/12/31 17:09:52;;;;;;;5.00;3.00;;;;;;;11.71;66.21;97981.56;12886628;23;20040;-83
2021/12/31 17:15:16;;;;;;;4.18;2.92;;;;;;;11.74;66.07;97979.63;12915887;23;20063;-83
2021/12/31 17:20:37;;;;;;;3.08;1.55;;;;;;;11.79;66.64;97981.38;12897576;23;20064;-84
2021/12/31 17:25:58;;;;;;;2.38;1.15;;;;;;;11.86;66.48;97997.22;12878832;23;20013;-81
2021/12/31 17:31:19;;;;;;;2.83;1.30;;;;;;;11.90;66.36;98007.97;12881844;23;20027;-82
2021/12/31 17:36:40;;;;;;;3.03;1.25;;;;;;;11.91;66.73;98015.75;12840180;23;20030;-77
2021/12/31 17:42:01;;;;;;;4.35;1.00;;;;;;;11.94;66.74;98014.56;12857274;23;20012;-82
2021/12/31 17:47:22;;;;;;;3.58;1.10;;;;;;;11.93;66.57;97996.31;12881201;23;20016;-80
2021/12/31 17:52:43;;;;;;;2.33;1.10;;;;;;;11.95;66.92;98006.91;12866401;23;20027;-83
2021/12/31 17:58:03;;;;;;;3.15;1.35;;;;;;;11.96;66.77;98005.56;12847470;23;20088;-78
2021/12/31 18:03:26;;;;;;;2.40;1.45;;;;;;;11.97;67.05;98007.06;12810307;23;20095;-78
2021/12/31 18:08:47;;;;;;;3.72;1.38;;;;;;;11.96;67.15;98027.94;12843484;23;20021;-76
2021/12/31 18:14:07;;;;;;;3.60;1.55;;;;;;;11.97;67.22;98018.97;12821253;23;20396;-78
2021/12/31 18:19:28;;;;;;;2.70;1.48;;;;;;;11.90;67.17;98007.97;12841366;23;20431;-76
2021/12/31 18:24:49;;;;;;;3.05;1.80;;;;;;;11.80;67.51;98007.31;12821000;23;20071;-77
2021/12/31 18:30:15;;;;;;;4.22;2.47;;;;;;;11.76;67.82;98005.66;12844053;23;20371;-79
2021/12/31 18:35:38;;;;;;;4.10;2.10;;;;;;;11.67;68.25;97992.47;12831782;23;20043;-82
2021/12/31 18:41:00;;;;;;;3.08;1.90;;;;;;;11.65;68.28;97983.94;12874767;23;20503;-79
2021/12/31 18:46:25;;;;;;;4.80;2.22;;;;;;;11.62;68.90;98007.50;12857198;23;20020;-81
2021/12/31 18:51:46;;;;;;;3.20;1.58;;;;;;;11.60;68.93;97979.41;12888380;23;20043;-84
2021/12/31 18:57:08;;;;;;;3.75;2.33;;;;;;;11.60;69.13;97998.25;12875028;23;20031;-85
2021/12/31 19:02:30;;;;;;;6.30;3.08;;;;;;;11.60;69.53;97998.25;12780843;23;20374;-77
2021/12/31 19:07:50;;;;;;;5.70;2.60;;;;;;;11.60;69.20;97998.25;12830659;23;20028;-78
2021/12/31 19:13:11;;;;;;;5.00;3.30;;;;;;;11.51;69.77;98002.56;12851081;23;20017;-78
2021/12/31 19:18:32;;;;;;;4.05;2.72;;;;;;;11.37;69.90;97987.63;12854873;23;20070;-80
2021/12/31 19:23:53;;;;;;;4.75;2.58;;;;;;;11.33;70.31;98004.13;12841134;23;20051;-77
2021/12/31 19:29:14;;;;;;;4.05;2.35;;;;;;;11.33;70.37;98013.22;12862700;23;20016;-77
2021/12/31 19:34:35;;;;;;;4.15;2.63;;;;;;;11.38;70.41;98011.44;12824821;23;20435;-78
2021/12/31 19:39:56;;;;;;;3.78;2.10;;;;;;;11.42;70.83;98017.31;12875554;23;20071;-81
2021/12/31 19:45:16;;;;;;;6.30;2.10;;;;;;;11.43;70.54;98029.97;12868702;23;20017;-79
2021/12/31 19:50:42;;;;;;;3.88;1.92;;;;;;;11.42;70.82;98040.41;12879107;23;20057;-83
2021/12/31 19:56:03;;;;;;;3.40;2.13;;;;;;;11.45;70.53;98038.47;12865712;23;20068;-79
2021/12/31 20:01:24;;;;;;;3.25;1.88;;;;;;;11.35;70.89;98032.19;12840582;23;20023;-77
2021/12/31 20:06:45;;;;;;;3.80;2.28;;;;;;;11.27;71.11;98032.38;12839202;23;20072;-80
2021/12/31 20:12:07;;;;;;;3.67;2.22;;;;;;;11.32;71.23;98036.19;12841299;23;20017;-77
2021/12/31 20:17:28;;;;;;;3.60;2.38;;;;;;;11.34;71.11;98037.06;12838884;23;20017;-78
2021/12/31 20:22:48;;;;;;;3.85;2.80;;;;;;;11.32;71.06;98030.59;12825401;23;20016;-80
2021/12/31 20:28:09;;;;;;;4.85;2.75;;;;;;;11.25;71.31;98034.28;12820430;23;20020;-79
2021/12/31 20:33:30;;;;;;;4.72;2.80;;;;;;;11.28;71.31;98030.31;12842986;23;20016;-76
2021/12/31 20:38:50;;;;;;;4.32;2.72;;;;;;;11.24;71.40;98041.94;12801685;23;20399;-76
2021/12/31 20:44:12;;;;;;;4.55;2.10;;;;;;;11.17;71.35;98032.41;12843729;23;20017;-78
2021/12/31 20:49:33;;;;;;;5.93;2.70;;;;;;;11.11;71.28;98018.03;12848076;23;20493;-78
2021/12/31 20:54:54;;;;;;;3.92;1.73;;;;;;;11.03;71.71;98053.75;12856431;23;20024;-79
2021/12/31 21:00:15;;;;;;;6.70;1.83;;;;;;;10.94;71.52;98037.75;12813450;23;20021;-78
2021/12/31 21:05:36;;;;;;;2.60;1.90;;;;;;;10.84;71.95;98056.59;12811618;23;20092;-78
2021/12/31 21:10:57;;;;;;;5.85;2.10;;;;;;;10.75;72.06;98068.50;12844814;23;20032;-79
2021/12/31 21:16:19;;;;;;;3.70;2.10;;;;;;;10.66;72.48;98086.00;12851998;23;20075;-77
2021/12/31 21:21:40;;;;;;;3.92;1.77;;;;;;;10.62;72.70;98074.53;12833274;23;20012;-79
2021/12/31 21:27:01;;;;;;;2.47;1.67;;;;;;;10.57;72.87;98084.66;12836414;23;20025;-80
2021/12/31 21:32:22;;;;;;;3.25;1.60;;;;;;;10.52;72.94;98099.66;12824433;23;20024;-78
2021/12/31 21:37:42;;;;;;;5.93;2.33;;;;;;;10.46;72.91;98104.78;12822436;23;20017;-78
2021/12/31 21:43:04;;;;;;;4.93;2.33;;;;;;;10.38;73.36;98118.13;12851729;23;20012;-79
2021/12/31 21:48:25;;;;;;;4.65;2.65;;;;;;;10.36;73.26;98129.91;12849891;23;20103;-79
2021/12/31 21:53:46;;;;;;;4.35;2.10;;;;;;;10.34;73.25;98126.97;12856979;23;20068;-80
2021/12/31 21:59:07;;;;;;;2.92;1.45;;;;;;;10.30;73.65;98137.81;12887677;23;20064;-83
2021/12/31 22:04:28;;;;;;;4.07;1.80;;;;;;;10.30;73.47;98135.75;12879331;23;20001;-81
2021/12/31 22:16:09;;;;;;;3.70;2.10;;;;;;;10.17;73.83;98124.97;12901158;23;20024;-81
2021/12/31 22:21:30;;;;;;;2.63;1.67;;;;;;;10.15;74.18;98124.09;12810126;23;20087;-80
2021/12/31 22:26:52;;;;;;;3.65;2.13;;;;;;;10.11;73.87;98129.34;12829320;23;20101;-79
2021/12/31 22:32:14;;;;;;;4.32;2.05;;;;;;;10.08;74.14;98142.41;12825253;23;20023;-79
2021/12/31 22:37:35;;;;;;;3.58;2.13;;;;;;;10.06;74.09;98149.91;12866955;23;20019;-80
2021/12/31 22:42:57;;;;;;;3.38;2.08;;;;;;;10.05;74.26;98149.16;12865915;23;20237;-81
2021/12/31 22:48:18;;;;;;;4.15;2.00;;;;;;;10.08;74.35;98167.53;12852809;23;20031;-80
2021/12/31 22:53:39;;;;;;;2.63;1.52;;;;;;;10.15;74.28;98174.31;12884972;23;20016;-85
2021/12/31 22:59:00;;;;;;;3.70;2.00;;;;;;;10.25;74.17;98183.47;12894590;23;20004;-82
2021/12/31 23:04:21;;;;;;;10.43;5.47;;;;;;;10.32;74.19;98188.91;12872527;23;20082;-80
2021/12/31 23:09:43;;;;;;;10.02;6.38;;;;;;;10.40;73.99;98199.94;12851544;23;20016;-82
2021/12/31 23:15:05;;;;;;;9.45;6.68;;;;;;;10.42;73.69;98191.00;12829409;23;20091;-77
2021/12/31 23:20:25;;;;;;;16.00;10.75;;;;;;;10.36;73.82;98210.81;12817762;23;20020;-78
2021/12/31 23:25:46;;;;;;;20.95;13.52;;;;;;;10.28;73.88;98205.34;12837767;23;20013;-77
2021/12/31 23:31:08;;;;;;;16.00;10.77;;;;;;;10.25;74.06;98216.94;12825771;23;20023;-80
2021/12/31 23:36:29;;;;;;;16.42;12.02;;;;;;;10.22;74.51;98232.78;12811928;23;20084;-86
2021/12/31 23:42:04;;;;;;;12.50;8.43;;;;;;;10.32;74.39;98232.81;12897224;23;20020;-85
2021/12/31 23:47:25;;;;;;;13.93;8.23;;;;;;;10.48;74.40;98222.16;12900157;23;20004;-82
2021/12/31 23:52:47;;;;;;;10.02;5.45;;;;;;;10.59;74.12;98232.75;12895579;23;20020;-83
2021/12/31 23:58:11;;;;;;;6.20;3.15;;;;;;;10.71;73.75;98233.69;12838659;23;20473;-78
